Terminal Aerodrome Forecast
Issued by NWS Wichita, KS

Home | Current Version | Previous Version | Text Only | Print | Product List | Glossary On
Versions: 1 2 3 4 5 6 7 8 9 10 11 12 13 14 15
000
FTUS43 KICT 101128
TAFICT
TAF
KICT 101128Z 1012/1112 15005KT P6SM SCT150
     FM101400 15007KT P6SM SCT015 BKN040
     FM101900 17014G22KT P6SM SCT025 BKN040
     FM110000 17013KT P6SM SCT120
     FM110800 17015KT P6SM BKN100=

USA.gov is the U.S. government's official web portal to all federal, state and local government web resources and services.